29WI weather

Whittlesey Cranberry Co Airport
Babcock, Wisconsin, United States

Public forecast

Using degrees Fahrenheit for public forecast. Weather courtesy of forecast.io.

Closest aviation weather report (METAR) to Whittlesey Cranberry Co Airport

Closest report is Alexander Field South Wood County Airport, 8.4 nm (15.5 km) ENE. Retrieved 2020/02/18 15:30 UTC (2 minutes ago):

KISW 181530Z AUTO 30016G24KT 10SM BKN020 M06/M10 A3012 RMK AO2 T10561100

Closest aviation forecast (TAF) to Whittlesey Cranberry Co Airport

Forecast is more than 6 hours old.

Closest forecast is Volk Field, 25.2 nm (46.6 km) SSW. Retrieved 2020/02/18 09:06 UTC (6 hours ago):

TAF KVOK 180900Z 1809/1915 30009KT 8000 -SN BR OVC008 620084 510013 QNH2983INS TEMPO 1809/1810 -FZDZ 660001 BECMG 1811/1812 31012KT 9999 NSW OVC010 620104 510013 QNH3001INS BECMG 1814/1815 30015G20KT 9999 BKN020 620203 510033 QNH3012INS BECMG 1902/1903 31009KT 9999 SCT040 510054 QNH3039INS TXM01/1809Z TNM18/1909Z